createdAt,value
2018-05-24T00:01:27.316Z,19.07
2018-05-24T00:03:55.024Z,18.43
2018-05-24T00:06:22.640Z,17.93
2018-05-24T00:08:50.242Z,18.70
2018-05-24T00:11:17.907Z,17.73
2018-05-24T00:13:45.716Z,19.70
2018-05-24T00:16:13.432Z,19.90
2018-05-24T00:18:41.039Z,18.30
2018-05-24T00:21:08.722Z,17.30
2018-05-24T00:23:36.438Z,16.23
2018-05-24T00:26:04.043Z,19.03
2018-05-24T00:28:31.763Z,16.47
2018-05-24T00:30:59.358Z,16.73
2018-05-24T00:33:27.090Z,16.70
2018-05-24T00:35:54.673Z,23.93
2018-05-24T00:38:23.319Z,21.10
2018-05-24T00:40:50.927Z,18.23
2018-05-24T00:43:18.600Z,16.13
2018-05-24T00:45:46.197Z,19.23
2018-05-24T00:48:14.171Z,16.67
2018-05-24T00:50:41.851Z,15.00
2018-05-24T00:53:09.468Z,16.53
2018-05-24T00:55:41.775Z,14.97
2018-05-24T00:58:09.551Z,17.57
2018-05-24T01:00:37.190Z,16.90
2018-05-24T01:03:04.810Z,20.57
2018-05-24T01:05:33.402Z,19.93
2018-05-24T01:08:01.133Z,16.53
2018-05-24T01:10:28.766Z,16.20
2018-05-24T01:12:57.224Z,14.83
2018-05-24T01:15:24.867Z,16.77
2018-05-24T01:17:52.566Z,18.97
2018-05-24T01:20:20.197Z,16.03
2018-05-24T01:22:47.879Z,18.23
2018-05-24T01:25:15.495Z,18.87
2018-05-24T01:27:43.091Z,19.80
2018-05-24T01:30:10.732Z,15.17
2018-05-24T01:32:39.306Z,18.40
2018-05-24T01:35:07.095Z,18.93
2018-05-24T01:37:46.574Z,18.00
2018-05-24T01:40:14.234Z,15.23
2018-05-24T01:42:41.865Z,16.13
2018-05-24T01:45:09.476Z,26.73
2018-05-24T01:47:37.104Z,18.17
2018-05-24T01:50:04.789Z,20.37
2018-05-24T01:52:32.426Z,19.33
2018-05-24T01:55:00.083Z,19.23
2018-05-24T01:57:27.715Z,21.80
2018-05-24T01:59:55.457Z,22.73
2018-05-24T02:02:23.213Z,19.13
2018-05-24T02:04:50.827Z,19.23
2018-05-24T02:07:19.497Z,18.40
2018-05-24T02:09:47.107Z,19.90
2018-05-24T02:12:14.885Z,20.53
2018-05-24T02:14:42.438Z,18.50
2018-05-24T02:17:10.331Z,18.87
2018-05-24T02:19:38.026Z,16.57
2018-05-24T02:22:05.755Z,16.93
2018-05-24T02:24:33.437Z,16.60
2018-05-24T02:27:01.184Z,19.20
2018-05-24T02:29:28.876Z,17.83
2018-05-24T02:31:57.410Z,17.73
2018-05-24T02:34:25.055Z,17.20
2018-05-24T02:36:52.695Z,16.13
2018-05-24T02:39:20.364Z,17.73
2018-05-24T02:41:47.961Z,17.60
2018-05-24T02:44:15.545Z,14.90
2018-05-24T02:46:43.130Z,16.40
2018-05-24T02:49:11.711Z,17.50
2018-05-24T02:51:39.345Z,19.70
2018-05-24T02:54:06.939Z,17.80
2018-05-24T02:56:34.601Z,17.00
2018-05-24T02:59:04.523Z,20.57
2018-05-24T03:01:32.165Z,18.80
2018-05-24T03:03:59.806Z,22.83
2018-05-24T03:06:27.392Z,19.97
2018-05-24T03:08:55.220Z,20.63
2018-05-24T03:11:22.977Z,17.90
2018-05-24T03:13:50.556Z,19.60
2018-05-24T03:16:18.229Z,29.40
2018-05-24T03:18:46.015Z,20.40
2018-05-24T03:21:14.602Z,20.87
2018-05-24T03:23:42.228Z,23.07
2018-05-24T03:26:09.822Z,19.93
2018-05-24T03:28:37.560Z,21.37
2018-05-24T03:31:05.203Z,20.20
2018-05-24T03:33:32.792Z,20.20
2018-05-24T03:36:00.708Z,18.33
2018-05-24T03:38:28.360Z,20.43
2018-05-24T03:40:56.034Z,23.20
2018-05-24T03:43:24.678Z,19.27
2018-05-24T03:45:52.391Z,21.50
2018-05-24T03:48:20.122Z,21.97
2018-05-24T03:50:47.726Z,20.20
2018-05-24T03:53:15.331Z,22.30
2018-05-24T03:55:42.967Z,21.13
2018-05-24T03:58:11.389Z,19.43
2018-05-24T04:03:48.026Z,19.17
2018-05-24T04:06:15.648Z,21.17
2018-05-24T04:08:43.290Z,22.57
2018-05-24T04:11:11.073Z,21.97
2018-05-24T04:13:38.707Z,20.87
2018-05-24T04:16:07.475Z,20.63
2018-05-24T04:18:35.176Z,24.97
2018-05-24T04:21:04.601Z,22.10
2018-05-24T04:23:32.957Z,19.97
2018-05-24T04:26:00.639Z,25.27
2018-05-24T04:28:28.433Z,21.10
2018-05-24T04:30:56.127Z,24.70
2018-05-24T04:33:24.588Z,21.13
2018-05-24T04:35:53.126Z,18.83
2018-05-24T04:38:21.966Z,18.40
2018-05-24T04:40:49.554Z,23.43
2018-05-24T04:43:18.016Z,20.27
2018-05-24T04:45:45.649Z,24.50
2018-05-24T04:48:13.305Z,19.23
2018-05-24T04:50:41.058Z,22.27
2018-05-24T04:53:09.784Z,21.40
2018-05-24T04:55:37.463Z,25.30
2018-05-24T04:58:07.135Z,17.80
2018-05-24T05:00:34.850Z,18.40
2018-05-24T05:03:06.478Z,19.87
2018-05-24T05:05:34.143Z,17.70
2018-05-24T05:08:05.269Z,21.10
2018-05-24T05:10:32.970Z,29.30
2018-05-24T05:13:00.620Z,20.80
2018-05-24T05:15:29.800Z,18.07
2018-05-24T05:17:57.439Z,25.03
2018-05-24T05:20:25.216Z,20.53
2018-05-24T05:22:52.883Z,20.97
2018-05-24T05:25:21.445Z,20.90
2018-05-24T05:27:49.228Z,24.63
2018-05-24T05:30:17.660Z,22.13
2018-05-24T05:32:45.346Z,22.10
2018-05-24T05:35:13.148Z,21.00
2018-05-24T05:37:41.602Z,17.97
2018-05-24T05:40:09.355Z,17.27
2018-05-24T05:42:37.552Z,19.50
2018-05-24T05:45:05.208Z,23.63
2018-05-24T05:47:33.628Z,20.10
2018-05-24T05:50:02.164Z,18.73
2018-05-24T05:52:29.806Z,20.60
2018-05-24T05:54:57.511Z,21.83
2018-05-24T05:57:25.870Z,22.77
2018-05-24T05:59:53.587Z,23.37
2018-05-24T06:02:22.694Z,17.53
2018-05-24T06:04:51.480Z,22.73
2018-05-24T06:07:20.631Z,20.93
2018-05-24T06:09:48.265Z,17.40
2018-05-24T06:12:16.036Z,20.23
2018-05-24T06:14:43.741Z,18.43
2018-05-24T06:17:11.555Z,20.47
2018-05-24T06:19:40.099Z,27.33
2018-05-24T06:22:08.075Z,19.43
2018-05-24T06:24:35.687Z,21.43
2018-05-24T06:27:03.356Z,18.43
2018-05-24T06:29:31.213Z,25.00
2018-05-24T06:31:58.900Z,20.33
2018-05-24T06:34:26.698Z,21.93
2018-05-24T06:36:54.541Z,30.90
2018-05-24T06:39:22.356Z,26.67
2018-05-24T06:41:50.272Z,27.80
2018-05-24T06:44:18.008Z,24.40
2018-05-24T06:46:46.572Z,25.73
2018-05-24T06:49:14.381Z,29.03
2018-05-24T06:51:42.105Z,27.00
2018-05-24T06:54:09.862Z,28.50
2018-05-24T06:56:37.648Z,34.30
2018-05-24T06:59:06.524Z,28.90
2018-05-24T07:01:34.353Z,36.97
2018-05-24T07:04:02.200Z,31.40
2018-05-24T07:06:29.901Z,36.33
2018-05-24T07:08:57.689Z,32.90
2018-05-24T07:11:25.369Z,46.00
2018-05-24T07:13:56.102Z,36.50
2018-05-24T07:16:23.885Z,34.87
2018-05-24T07:18:51.618Z,36.30
2018-05-24T07:21:19.355Z,35.80
2018-05-24T07:23:46.958Z,40.80
2018-05-24T07:26:15.877Z,34.77
2018-05-24T07:28:44.988Z,33.23
2018-05-24T07:31:13.149Z,33.33
2018-05-24T07:33:41.000Z,32.30
2018-05-24T07:36:09.680Z,29.63
2018-05-24T07:38:37.348Z,29.93
2018-05-24T07:41:06.027Z,32.07
2018-05-24T07:43:34.521Z,29.77
2018-05-24T07:46:02.154Z,30.80
2018-05-24T07:48:30.473Z,31.23
2018-05-24T07:50:58.202Z,27.20
2018-05-24T07:53:27.233Z,26.97
2018-05-24T07:55:55.871Z,28.13
2018-05-24T07:58:23.575Z,27.00
2018-05-24T08:00:51.211Z,30.73
2018-05-24T08:03:18.876Z,30.27
2018-05-24T08:05:47.058Z,29.80
2018-05-24T08:08:15.524Z,31.97
2018-05-24T08:10:43.277Z,29.00
2018-05-24T08:13:10.955Z,30.47
2018-05-24T08:15:38.788Z,27.53
2018-05-24T08:18:06.429Z,29.10
2018-05-24T08:20:34.032Z,32.50
2018-05-24T08:23:02.768Z,31.10
2018-05-24T08:25:30.490Z,32.73
2018-05-24T08:27:58.220Z,30.90
2018-05-24T08:30:25.941Z,25.97
2018-05-24T08:32:54.572Z,28.07
2018-05-24T08:35:22.237Z,27.30
2018-05-24T08:37:51.397Z,30.00
2018-05-24T08:40:19.030Z,25.90
2018-05-24T08:42:46.931Z,27.43
2018-05-24T08:45:14.800Z,26.67
2018-05-24T08:47:43.076Z,29.90
2018-05-24T08:50:11.992Z,32.47
2018-05-24T08:52:41.690Z,29.90
2018-05-24T08:55:09.270Z,29.00
2018-05-24T08:57:37.052Z,29.53
2018-05-24T09:00:04.756Z,31.73
2018-05-24T09:02:32.642Z,32.80
2018-05-24T09:05:00.445Z,36.20
2018-05-24T09:07:28.139Z,34.23
2018-05-24T09:09:55.801Z,31.40
2018-05-24T09:12:23.457Z,31.53
2018-05-24T09:14:51.132Z,38.20
2018-05-24T09:17:18.743Z,30.20
2018-05-24T09:19:46.459Z,35.87
2018-05-24T09:22:14.228Z,36.57
2018-05-24T09:24:41.935Z,29.53
2018-05-24T09:27:09.649Z,26.20
2018-05-24T09:29:37.302Z,29.20
2018-05-24T09:32:05.099Z,26.07
2018-05-24T09:34:33.657Z,30.93
2018-05-24T09:37:01.421Z,28.90
2018-05-24T09:39:29.172Z,29.53
2018-05-24T09:41:56.832Z,30.03
2018-05-24T09:44:24.955Z,32.80
2018-05-24T09:46:53.027Z,34.33
2018-05-24T09:49:20.735Z,29.17
2018-05-24T09:51:48.401Z,26.20
2018-05-24T09:54:16.080Z,25.83
2018-05-24T09:56:43.686Z,28.53
2018-05-24T09:59:11.620Z,28.87
2018-05-24T10:01:39.299Z,32.70
2018-05-24T10:04:07.039Z,35.57
2018-05-24T10:06:34.725Z,28.73
2018-05-24T10:09:02.864Z,33.40
2018-05-24T10:11:30.512Z,30.27
2018-05-24T10:13:58.297Z,33.83
2018-05-24T10:16:26.931Z,34.70
2018-05-24T10:18:54.483Z,35.87
2018-05-24T10:21:22.117Z,35.90
2018-05-24T10:23:49.775Z,31.93
2018-05-24T10:26:17.483Z,38.00
2018-05-24T10:28:45.253Z,35.70
2018-05-24T10:31:13.996Z,35.77
2018-05-24T10:33:41.683Z,32.33
2018-05-24T10:36:09.320Z,36.53
2018-05-24T10:38:36.966Z,31.40
2018-05-24T10:41:04.729Z,36.63
2018-05-24T10:43:32.541Z,41.70
2018-05-24T10:46:00.148Z,38.17
2018-05-24T10:48:27.844Z,34.83
2018-05-24T10:50:55.678Z,32.60
2018-05-24T10:53:23.376Z,34.67
2018-05-24T10:55:51.088Z,32.37
2018-05-24T10:58:18.881Z,30.80
2018-05-24T11:00:46.836Z,33.13
2018-05-24T11:03:14.652Z,27.70
2018-05-24T11:05:43.977Z,27.87
2018-05-24T11:08:11.731Z,28.07
2018-05-24T11:10:39.410Z,30.27
2018-05-24T11:13:07.147Z,29.63
2018-05-24T11:15:34.764Z,32.27
2018-05-24T11:18:02.539Z,34.80
2018-05-24T11:20:30.359Z,33.97
2018-05-24T11:22:58.061Z,29.73
2018-05-24T11:25:26.485Z,33.57
2018-05-24T11:27:54.468Z,28.47
2018-05-24T11:30:22.438Z,27.83
2018-05-24T11:32:53.069Z,34.60
2018-05-24T11:35:21.731Z,32.03
2018-05-24T11:37:49.426Z,27.07
2018-05-24T11:40:17.685Z,31.60
2018-05-24T11:42:45.868Z,32.40
2018-05-24T11:45:13.595Z,28.10
2018-05-24T11:47:41.354Z,28.07
2018-05-24T11:50:09.938Z,29.17
2018-05-24T11:52:37.995Z,27.83
2018-05-24T11:55:05.687Z,34.73
2018-05-24T11:57:33.700Z,31.30
2018-05-24T12:00:01.291Z,33.93
2018-05-24T12:02:29.062Z,32.20
2018-05-24T12:04:56.755Z,32.07
2018-05-24T12:07:24.495Z,29.23
2018-05-24T12:09:53.075Z,29.27
2018-05-24T12:12:21.105Z,31.07
2018-05-24T12:14:48.719Z,29.10
2018-05-24T12:17:16.392Z,32.00
2018-05-24T12:19:44.055Z,31.20
2018-05-24T12:22:11.733Z,32.67
2018-05-24T12:24:39.655Z,28.23
2018-05-24T12:27:07.366Z,31.90
2018-05-24T12:29:34.969Z,33.63
2018-05-24T12:32:04.126Z,29.60
2018-05-24T12:34:32.048Z,30.60
2018-05-24T12:36:59.732Z,30.77
2018-05-24T12:39:27.426Z,31.20
2018-05-24T12:41:55.221Z,28.50
2018-05-24T12:44:22.948Z,27.23
2018-05-24T12:46:50.633Z,32.17
2018-05-24T12:49:18.353Z,30.93
2018-05-24T12:51:46.479Z,34.53
2018-05-24T12:54:14.130Z,34.03
2018-05-24T12:56:41.898Z,30.40
2018-05-24T12:59:09.726Z,26.80
2018-05-24T13:01:37.477Z,31.07
2018-05-24T13:04:05.234Z,30.13
2018-05-24T13:06:33.271Z,27.93
2018-05-24T13:09:01.690Z,29.57
2018-05-24T13:11:29.385Z,31.87
2018-05-24T13:13:57.241Z,28.70
2018-05-24T13:16:24.957Z,26.10
2018-05-24T13:18:52.754Z,29.10
2018-05-24T13:21:20.431Z,23.40
2018-05-24T13:23:48.127Z,28.30
2018-05-24T13:26:15.761Z,27.30
2018-05-24T13:28:43.412Z,25.40
2018-05-24T13:31:11.375Z,25.90
2018-05-24T13:33:39.063Z,27.83
2018-05-24T13:36:06.863Z,27.77
2018-05-24T13:38:34.687Z,30.53
2018-05-24T13:41:02.502Z,28.77
2018-05-24T13:43:30.522Z,25.93
2018-05-24T13:45:58.189Z,27.00
2018-05-24T13:48:25.829Z,25.00
2018-05-24T13:50:53.539Z,25.70
2018-05-24T13:53:21.490Z,30.70
2018-05-24T13:55:49.333Z,25.77
2018-05-24T13:58:17.221Z,26.90
2018-05-24T14:00:44.930Z,24.47
2018-05-24T14:03:12.779Z,23.07
2018-05-24T14:05:40.710Z,26.70
2018-05-24T14:08:08.466Z,26.20
2018-05-24T14:10:36.244Z,23.20
2018-05-24T14:13:04.684Z,24.27
2018-05-24T14:15:32.439Z,25.73
2018-05-24T14:18:00.160Z,25.50
2018-05-24T14:20:28.032Z,25.50
2018-05-24T14:22:55.999Z,26.60
2018-05-24T14:25:25.161Z,28.33
2018-05-24T14:27:53.286Z,36.20
2018-05-24T14:30:21.113Z,27.50
2018-05-24T14:32:48.999Z,23.73
2018-05-24T14:35:16.886Z,26.50
2018-05-24T14:37:45.055Z,27.50
2018-05-24T14:40:13.013Z,23.37
2018-05-24T14:42:41.632Z,24.07
2018-05-24T14:45:09.580Z,19.53
2018-05-24T14:47:37.582Z,18.50
2018-05-24T14:50:05.378Z,23.93
2018-05-24T14:52:33.503Z,21.10
2018-05-24T14:55:02.246Z,22.67
2018-05-24T14:57:30.756Z,19.23
2018-05-24T14:59:58.727Z,20.13
2018-05-24T15:02:26.521Z,19.70
2018-05-24T15:04:54.480Z,21.43
2018-05-24T15:07:24.487Z,18.40
2018-05-24T15:09:52.677Z,20.47
2018-05-24T15:12:20.833Z,15.10
2018-05-24T15:14:48.911Z,15.60
2018-05-24T15:17:16.521Z,20.83
2018-05-24T15:19:44.239Z,18.37
2018-05-24T15:22:12.376Z,21.10
2018-05-24T15:24:40.019Z,19.83
2018-05-24T15:27:07.714Z,21.33
2018-05-24T15:29:35.368Z,18.97
2018-05-24T15:32:05.364Z,17.03
2018-05-24T15:34:34.163Z,21.17
2018-05-24T15:37:01.838Z,23.03
2018-05-24T15:39:29.707Z,21.00
2018-05-24T15:41:57.465Z,17.37
2018-05-24T15:44:25.876Z,21.63
2018-05-24T15:46:53.617Z,19.80
2018-05-24T15:49:21.605Z,21.40
2018-05-24T15:51:49.292Z,18.67
2018-05-24T15:54:17.845Z,20.90
2018-05-24T15:56:48.392Z,20.33
2018-05-24T15:59:17.163Z,19.00
2018-05-24T16:01:44.950Z,16.47
2018-05-24T16:04:12.626Z,17.50
2018-05-24T16:06:40.520Z,17.93
2018-05-24T16:09:08.209Z,19.00
2018-05-24T16:11:35.929Z,21.53
2018-05-24T16:14:03.619Z,18.50
2018-05-24T16:16:32.424Z,23.33
2018-05-24T16:19:01.698Z,17.10
2018-05-24T16:21:29.473Z,18.20
2018-05-24T16:23:57.348Z,21.57
2018-05-24T16:26:24.978Z,17.50
2018-05-24T16:28:53.211Z,17.00
2018-05-24T16:31:21.076Z,16.83
2018-05-24T16:33:48.787Z,18.27
2018-05-24T16:36:17.327Z,20.50
2018-05-24T16:38:44.935Z,16.93
2018-05-24T16:41:12.608Z,18.00
2018-05-24T16:43:40.313Z,20.03
2018-05-24T16:46:08.001Z,20.33
2018-05-24T16:48:36.302Z,17.47
2018-05-24T16:51:04.857Z,20.73
2018-05-24T16:53:32.572Z,18.90
2018-05-24T16:56:01.231Z,20.47
2018-05-24T16:58:28.833Z,20.83
2018-05-24T17:00:56.480Z,22.40
2018-05-24T17:03:24.151Z,20.37
2018-05-24T17:05:51.899Z,18.90
2018-05-24T17:08:20.551Z,21.80
2018-05-24T17:10:48.181Z,21.63
2018-05-24T17:13:15.814Z,22.10
2018-05-24T17:15:45.861Z,19.67
2018-05-24T17:18:13.502Z,18.70
2018-05-24T17:20:41.190Z,20.10
2018-05-24T17:23:08.956Z,25.40
2018-05-24T17:25:36.750Z,24.43
2018-05-24T17:28:04.617Z,23.03
2018-05-24T17:30:33.215Z,24.00
2018-05-24T17:33:00.804Z,23.13
2018-05-24T17:35:29.561Z,25.00
2018-05-24T17:37:57.276Z,21.00
2018-05-24T17:40:24.940Z,23.77
2018-05-24T17:42:52.583Z,26.13
2018-05-24T17:45:20.154Z,22.67
2018-05-24T17:47:48.142Z,27.77
2018-05-24T17:50:15.721Z,20.20
2018-05-24T17:52:43.541Z,22.20
2018-05-24T17:55:11.208Z,23.53
2018-05-24T17:57:39.032Z,22.57
2018-05-24T18:00:10.338Z,20.80
2018-05-24T18:02:38.254Z,22.27
2018-05-24T18:05:06.016Z,21.30
2018-05-24T18:07:33.716Z,22.00
2018-05-24T18:10:02.008Z,22.57
2018-05-24T18:12:29.747Z,22.10
2018-05-24T18:14:57.732Z,21.07
2018-05-24T18:17:25.360Z,23.77
2018-05-24T18:19:52.963Z,25.13
2018-05-24T18:22:21.621Z,21.10
2018-05-24T18:24:50.356Z,21.77
2018-05-24T18:27:18.261Z,25.37
2018-05-24T18:29:45.945Z,24.23
2018-05-24T18:32:13.607Z,23.20
2018-05-24T18:34:42.109Z,23.67
2018-05-24T18:37:09.758Z,23.70
2018-05-24T18:39:37.354Z,24.73
2018-05-24T18:42:05.093Z,25.53
2018-05-24T18:44:33.112Z,24.03
2018-05-24T18:47:00.832Z,22.57
2018-05-24T18:49:28.472Z,23.97
2018-05-24T18:51:56.271Z,23.63
2018-05-24T18:54:23.961Z,24.90
2018-05-24T19:02:37.973Z,28.20
2018-05-24T19:05:05.804Z,29.97
2018-05-24T19:10:26.270Z,30.60
2018-05-24T19:12:54.108Z,27.67
2018-05-24T19:15:21.907Z,28.90
2018-05-24T19:17:49.645Z,29.97
2018-05-24T19:20:18.978Z,31.33
2018-05-24T19:22:46.740Z,31.70
2018-05-24T19:25:14.437Z,49.43
2018-05-24T19:27:42.063Z,29.30
2018-05-24T19:30:09.598Z,23.37
2018-05-24T19:32:37.171Z,18.07
2018-05-24T19:35:05.780Z,14.43
2018-05-24T19:37:33.382Z,15.00
2018-05-24T19:40:00.966Z,24.53
2018-05-24T19:42:29.712Z,15.90
2018-05-24T19:44:58.485Z,11.33
2018-05-24T19:47:26.312Z,8.47
2018-05-24T19:49:54.832Z,11.17
2018-05-24T19:52:23.325Z,7.20
2018-05-24T19:54:51.839Z,6.97
2018-05-24T19:57:19.469Z,11.50
2018-05-24T19:59:47.107Z,19.33
2018-05-24T20:02:14.810Z,9.30
2018-05-24T20:04:42.702Z,6.73
2018-05-24T20:07:10.541Z,8.50
2018-05-24T20:09:38.159Z,5.20
2018-05-24T20:12:05.737Z,6.87
2018-05-24T20:14:33.552Z,6.20
2018-05-24T20:17:04.797Z,5.73
2018-05-24T20:19:32.508Z,5.97
2018-05-24T20:22:00.115Z,4.90
2018-05-24T20:24:28.808Z,4.17
2018-05-24T20:26:58.854Z,5.40
2018-05-24T20:29:26.477Z,5.53
2018-05-24T20:31:54.076Z,9.43
2018-05-24T20:34:21.674Z,11.40
2018-05-24T20:36:49.328Z,10.57
2018-05-24T20:39:17.112Z,11.77
2018-05-24T20:41:44.804Z,9.90
2018-05-24T20:44:13.235Z,8.03
2018-05-24T20:46:41.018Z,11.13
2018-05-24T20:49:08.605Z,13.40
2018-05-24T20:51:36.413Z,7.37
2018-05-24T20:54:04.074Z,8.13
2018-05-24T20:56:31.965Z,7.17
2018-05-24T20:58:59.685Z,7.03
2018-05-24T21:01:27.497Z,5.07
2018-05-24T21:03:55.176Z,8.10
2018-05-24T21:06:22.749Z,7.53
2018-05-24T21:08:50.419Z,7.57
2018-05-24T21:11:18.113Z,10.23
2018-05-24T21:13:45.753Z,6.47
2018-05-24T21:16:13.407Z,8.40
2018-05-24T21:18:42.544Z,14.20
2018-05-24T21:21:10.242Z,6.00
2018-05-24T21:23:37.784Z,5.40
2018-05-24T21:26:09.560Z,8.07
2018-05-24T21:28:37.374Z,6.80
2018-05-24T21:31:05.085Z,7.47
2018-05-24T21:33:32.741Z,8.53
2018-05-24T21:36:00.275Z,10.40
2018-05-24T21:38:28.845Z,9.00
2018-05-24T21:41:02.425Z,9.80
2018-05-24T21:43:30.111Z,12.87
2018-05-24T21:45:57.758Z,10.13
2018-05-24T21:48:25.407Z,9.97
2018-05-24T21:50:54.402Z,10.57
2018-05-24T21:53:21.990Z,12.87
2018-05-24T21:55:49.574Z,9.83
2018-05-24T21:58:17.339Z,11.67
2018-05-24T22:00:51.268Z,11.87
2018-05-24T22:03:19.003Z,13.63
2018-05-24T22:05:46.586Z,12.43
2018-05-24T22:08:14.576Z,12.43
2018-05-24T22:10:42.672Z,10.63
2018-05-24T22:13:10.199Z,13.53
2018-05-24T22:15:37.994Z,12.63
2018-05-24T22:18:05.695Z,13.53
2018-05-24T22:20:33.310Z,14.83
2018-05-24T22:23:02.493Z,12.33
2018-05-24T22:25:30.035Z,11.40
2018-05-24T22:27:57.772Z,10.50
2018-05-24T22:30:25.427Z,13.60
2018-05-24T22:32:53.489Z,8.10
2018-05-24T22:35:21.098Z,7.93
2018-05-24T22:37:49.542Z,14.33
2018-05-24T22:40:17.261Z,11.00
2018-05-24T22:42:44.806Z,10.30
2018-05-24T22:45:12.980Z,13.03
2018-05-24T22:47:40.889Z,6.87
2018-05-24T22:50:09.309Z,9.40
2018-05-24T22:52:37.058Z,8.43
2018-05-24T22:55:04.750Z,9.80
2018-05-24T22:57:32.723Z,7.23
2018-05-24T23:00:00.311Z,10.13
2018-05-24T23:02:27.831Z,11.80
2018-05-24T23:04:55.418Z,5.73
2018-05-24T23:07:22.978Z,6.00
2018-05-24T23:09:50.478Z,7.00
2018-05-24T23:12:18.082Z,8.60
2018-05-24T23:14:45.608Z,5.67
2018-05-24T23:17:13.200Z,6.37
2018-05-24T23:19:40.889Z,8.17
2018-05-24T23:22:08.474Z,8.60
2018-05-24T23:24:36.046Z,5.00
2018-05-24T23:27:03.623Z,6.30
2018-05-24T23:29:31.203Z,7.53
2018-05-24T23:31:58.856Z,4.90
2018-05-24T23:34:26.448Z,7.20
2018-05-24T23:36:54.320Z,8.70
2018-05-24T23:39:21.882Z,5.43
2018-05-24T23:41:49.402Z,5.30
2018-05-24T23:44:17.009Z,8.23
2018-05-24T23:46:44.627Z,3.73
2018-05-24T23:49:12.218Z,6.13
2018-05-24T23:51:39.807Z,7.73
2018-05-24T23:54:07.357Z,6.73
2018-05-24T23:56:34.930Z,5.37
2018-05-24T23:59:02.881Z,5.20
